createdAt,value
2022-08-27T00:02:56.025Z,57.81
2022-08-27T00:05:58.230Z,57.67
2022-08-27T00:09:00.343Z,57.65
2022-08-27T00:12:03.036Z,57.78
2022-08-27T00:15:06.763Z,58.39
2022-08-27T00:18:09.007Z,58.53
2022-08-27T00:21:11.669Z,58.12
2022-08-27T00:24:13.950Z,57.08
2022-08-27T00:27:16.271Z,56.45
2022-08-27T00:30:20.663Z,57.04
2022-08-27T00:33:23.259Z,57.42
2022-08-27T00:36:25.588Z,57.02
2022-08-27T00:39:27.735Z,58.72
2022-08-27T00:42:31.051Z,57.72
2022-08-27T00:45:37.830Z,59.00
2022-08-27T00:48:39.981Z,59.17
2022-08-27T00:51:42.185Z,59.92
2022-08-27T00:54:44.522Z,60.64
2022-08-27T00:57:51.390Z,61.45
2022-08-27T01:00:53.839Z,60.57
2022-08-27T01:03:58.951Z,60.31
2022-08-27T01:07:01.235Z,59.23
2022-08-27T01:10:05.407Z,60.33
2022-08-27T01:13:09.584Z,59.33
2022-08-27T01:16:11.763Z,59.89
2022-08-27T01:19:50.352Z,61.73
2022-08-27T01:23:46.361Z,62.34
2022-08-27T01:26:48.546Z,60.73
2022-08-27T01:29:50.768Z,60.26
2022-08-27T01:32:52.966Z,60.27
2022-08-27T01:35:55.098Z,63.79
2022-08-27T01:38:57.539Z,60.90
2022-08-27T01:42:19.922Z,62.99
2022-08-27T01:45:28.655Z,60.22
2022-08-27T01:48:30.738Z,60.57
2022-08-27T01:51:32.822Z,60.40
2022-08-27T01:54:35.127Z,60.37
2022-08-27T01:57:37.479Z,62.75
2022-08-27T02:00:42.112Z,63.47
2022-08-27T02:03:44.674Z,66.76
2022-08-27T02:06:47.066Z,65.08
2022-08-27T02:09:49.128Z,68.75
2022-08-27T02:12:52.660Z,67.56
2022-08-27T02:15:55.646Z,67.77
2022-08-27T02:18:58.103Z,67.77
2022-08-27T02:22:01.380Z,64.18
2022-08-27T02:25:04.028Z,66.48
2022-08-27T02:28:06.424Z,66.84
2022-08-27T02:31:08.811Z,69.47
2022-08-27T02:34:10.944Z,69.29
2022-08-27T02:37:13.076Z,67.64
2022-08-27T02:40:17.658Z,69.77
2022-08-27T02:43:25.265Z,70.68
2022-08-27T02:46:27.775Z,70.18
2022-08-27T02:49:30.415Z,69.25
2022-08-27T02:52:32.491Z,69.82
2022-08-27T02:55:34.608Z,71.77
2022-08-27T02:58:39.431Z,72.32
2022-08-27T03:01:41.598Z,71.85
2022-08-27T03:04:44.479Z,70.99
2022-08-27T03:07:46.588Z,68.78
2022-08-27T03:10:49.015Z,68.09
2022-08-27T03:13:51.537Z,69.82
2022-08-27T03:16:53.680Z,69.07
2022-08-27T03:19:55.746Z,66.28
2022-08-27T03:22:57.830Z,63.87
2022-08-27T03:26:02.033Z,66.66
2022-08-27T03:29:04.142Z,66.19
2022-08-27T03:32:07.097Z,63.62
2022-08-27T03:35:09.708Z,62.51
2022-08-27T03:38:11.879Z,63.59
2022-08-27T03:41:14.299Z,62.78
2022-08-27T03:44:21.757Z,65.32
2022-08-27T03:47:24.167Z,63.71
2022-08-27T03:50:26.240Z,63.61
2022-08-27T03:53:28.460Z,65.58
2022-08-27T03:56:30.547Z,67.60
2022-08-27T03:59:33.347Z,66.86
2022-08-27T04:02:35.461Z,68.28
2022-08-27T04:05:37.588Z,66.79
2022-08-27T04:08:39.654Z,65.40
2022-08-27T04:11:41.787Z,66.15
2022-08-27T04:14:43.863Z,65.04
2022-08-27T04:17:46.050Z,65.30
2022-08-27T04:20:49.047Z,65.55
2022-08-27T04:23:51.126Z,64.94
2022-08-27T04:26:55.585Z,67.93
2022-08-27T04:29:58.759Z,68.97
2022-08-27T04:33:00.946Z,69.36
2022-08-27T04:36:08.163Z,69.02
2022-08-27T04:39:10.232Z,71.16
2022-08-27T04:42:12.323Z,72.80
2022-08-27T04:45:14.924Z,73.23
2022-08-27T04:48:17.907Z,70.80
2022-08-27T04:51:20.893Z,67.60
2022-08-27T04:54:32.399Z,67.88
2022-08-27T04:57:37.890Z,67.23
2022-08-27T05:01:01.954Z,69.27
2022-08-27T05:04:04.260Z,67.65
2022-08-27T05:07:08.143Z,65.28
2022-08-27T05:10:10.254Z,69.90
2022-08-27T05:13:12.466Z,70.79
2022-08-27T05:16:21.270Z,71.87
2022-08-27T05:19:23.395Z,72.51
2022-08-27T05:22:25.511Z,70.74
2022-08-27T05:25:27.790Z,71.76
2022-08-27T05:28:29.886Z,71.81
2022-08-27T05:31:32.205Z,71.68
2022-08-27T05:34:34.316Z,71.32
2022-08-27T05:37:36.805Z,70.00
2022-08-27T05:40:40.482Z,64.13
2022-08-27T05:43:46.494Z,65.91
2022-08-27T05:46:51.370Z,63.63
2022-08-27T05:49:54.454Z,64.45
2022-08-27T05:52:56.515Z,65.45
2022-08-27T05:55:58.627Z,66.57
2022-08-27T05:59:19.403Z,67.50
2022-08-27T06:02:21.763Z,70.08
2022-08-27T06:05:24.030Z,68.83
2022-08-27T06:08:26.299Z,66.07
2022-08-27T06:11:28.635Z,65.44
2022-08-27T06:14:30.718Z,67.84
2022-08-27T06:17:32.798Z,66.52
2022-08-27T06:20:35.202Z,65.41
2022-08-27T06:23:37.405Z,65.24
2022-08-27T06:26:40.812Z,66.73
2022-08-27T06:29:43.164Z,65.70
2022-08-27T06:32:45.487Z,64.21
2022-08-27T06:35:47.576Z,64.62
2022-08-27T06:38:49.882Z,63.29
2022-08-27T06:41:52.085Z,63.86
2022-08-27T06:44:56.494Z,66.48
2022-08-27T06:47:58.710Z,68.82
2022-08-27T06:51:00.922Z,68.05
2022-08-27T06:54:06.504Z,67.45
2022-08-27T06:57:08.856Z,66.32
2022-08-27T07:00:12.488Z,66.88
2022-08-27T07:03:14.711Z,65.96
2022-08-27T07:06:17.196Z,65.16
2022-08-27T07:09:20.676Z,64.98
2022-08-27T07:12:22.756Z,64.32
2022-08-27T07:15:33.143Z,62.30
2022-08-27T07:18:38.648Z,64.05
2022-08-27T07:21:42.678Z,64.22
2022-08-27T07:24:44.766Z,62.20
2022-08-27T07:27:50.007Z,61.77
2022-08-27T07:30:53.094Z,64.53
2022-08-27T07:33:55.291Z,66.35
2022-08-27T07:36:57.359Z,66.20
2022-08-27T07:39:59.449Z,66.05
2022-08-27T07:43:19.940Z,65.23
2022-08-27T07:46:25.152Z,65.01
2022-08-27T07:49:28.567Z,64.04
2022-08-27T07:52:30.709Z,64.87
2022-08-27T07:55:32.822Z,63.38
2022-08-27T07:58:35.534Z,63.52
2022-08-27T08:01:37.677Z,63.93
2022-08-27T08:04:39.787Z,63.25
2022-08-27T08:07:41.917Z,62.74
2022-08-27T08:10:44.033Z,61.84
2022-08-27T08:13:46.281Z,62.83
2022-08-27T08:16:48.498Z,61.37
2022-08-27T08:20:15.362Z,60.76
2022-08-27T08:23:13.324Z,62.06
2022-08-27T08:26:15.916Z,61.34
2022-08-27T08:29:18.521Z,62.17
2022-08-27T08:32:21.436Z,62.05
2022-08-27T08:35:24.468Z,60.29
2022-08-27T08:38:28.133Z,58.57
2022-08-27T08:41:48.650Z,57.95
2022-08-27T08:44:52.920Z,57.41
2022-08-27T08:48:17.522Z,54.89
2022-08-27T08:51:31.454Z,53.89
2022-08-27T08:54:33.598Z,53.49
2022-08-27T08:58:12.961Z,52.82
2022-08-27T09:01:19.561Z,52.56
2022-08-27T09:04:21.673Z,51.74
2022-08-27T09:07:47.263Z,54.71
2022-08-27T09:11:21.087Z,52.65
2022-08-27T09:14:49.892Z,52.30
2022-08-27T09:17:52.459Z,52.93
2022-08-27T09:21:29.607Z,52.43
2022-08-27T09:24:56.096Z,52.07
2022-08-27T09:28:01.498Z,51.46
2022-08-27T09:31:09.431Z,50.65
2022-08-27T09:34:13.072Z,50.47
2022-08-27T09:37:27.331Z,48.71
2022-08-27T09:40:44.524Z,48.72
2022-08-27T09:44:00.797Z,51.60
2022-08-27T09:47:03.692Z,47.49
2022-08-27T09:50:08.428Z,50.18
2022-08-27T09:53:45.427Z,48.67
2022-08-27T09:56:49.267Z,48.28
2022-08-27T09:59:53.909Z,47.55
2022-08-27T10:02:56.039Z,47.29
2022-08-27T10:05:58.216Z,47.78
2022-08-27T10:09:14.788Z,46.75
2022-08-27T10:12:33.684Z,47.52
2022-08-27T10:15:59.058Z,47.75
2022-08-27T10:19:16.840Z,47.95
2022-08-27T10:22:27.762Z,48.41
2022-08-27T10:26:02.663Z,48.10
2022-08-27T10:29:39.459Z,48.40
2022-08-27T10:33:23.403Z,48.16
2022-08-27T10:37:21.547Z,47.96
2022-08-27T10:40:35.956Z,49.07
2022-08-27T10:44:16.919Z,46.63
2022-08-27T10:47:51.081Z,46.85
2022-08-27T10:51:08.823Z,45.39
2022-08-27T10:54:25.371Z,43.95
2022-08-27T10:57:53.914Z,45.00
2022-08-27T11:01:01.847Z,44.97
2022-08-27T11:04:15.107Z,42.32
2022-08-27T11:07:55.995Z,42.60
2022-08-27T11:11:35.038Z,40.73
2022-08-27T11:14:49.018Z,39.77
2022-08-27T11:18:27.690Z,38.97
2022-08-27T11:22:14.805Z,42.77
2022-08-27T11:25:34.082Z,43.48
2022-08-27T11:28:39.599Z,43.13
2022-08-27T11:31:50.085Z,39.44
2022-08-27T11:34:56.010Z,39.63
2022-08-27T11:38:54.798Z,38.31
2022-08-27T11:42:02.604Z,41.29
2022-08-27T11:45:20.454Z,40.33
2022-08-27T11:48:28.748Z,38.91
2022-08-27T11:51:37.045Z,37.86
2022-08-27T11:55:09.151Z,39.49
2022-08-27T11:58:23.415Z,39.52
2022-08-27T12:01:29.196Z,39.00
2022-08-27T12:04:31.271Z,40.86
2022-08-27T12:07:35.888Z,39.10
2022-08-27T12:11:11.955Z,36.89
2022-08-27T12:14:41.466Z,35.60
2022-08-27T12:18:17.503Z,34.48
2022-08-27T12:21:29.483Z,36.42
2022-08-27T12:24:46.933Z,39.56
2022-08-27T12:28:05.970Z,35.95
2022-08-27T12:31:08.073Z,38.55
2022-08-27T12:34:26.117Z,34.46
2022-08-27T12:37:33.839Z,35.65
2022-08-27T12:40:54.039Z,35.11
2022-08-27T12:44:13.306Z,33.15
2022-08-27T12:47:17.118Z,32.66
2022-08-27T12:50:28.098Z,32.87
2022-08-27T12:53:57.206Z,35.34
2022-08-27T12:57:04.906Z,37.74
2022-08-27T13:00:19.637Z,37.29
2022-08-27T13:03:37.776Z,32.60
2022-08-27T13:06:44.904Z,34.74
2022-08-27T13:09:47.021Z,35.82
2022-08-27T13:12:59.591Z,33.66
2022-08-27T13:16:02.467Z,35.76
2022-08-27T13:19:06.128Z,35.43
2022-08-27T13:22:08.206Z,32.64
2022-08-27T13:25:31.157Z,33.68
2022-08-27T13:28:34.090Z,35.39
2022-08-27T13:31:36.340Z,36.88
2022-08-27T13:34:39.671Z,36.66
2022-08-27T13:37:48.148Z,36.65
2022-08-27T13:41:25.358Z,37.26
2022-08-27T13:44:40.931Z,38.24
2022-08-27T13:47:47.811Z,35.62
2022-08-27T13:50:55.320Z,36.07
2022-08-27T13:54:16.112Z,36.87
2022-08-27T13:57:30.361Z,38.21
2022-08-27T14:00:33.660Z,38.44
2022-08-27T14:03:47.327Z,36.68
2022-08-27T14:06:49.974Z,37.15
2022-08-27T14:10:07.531Z,33.62
2022-08-27T14:13:17.283Z,34.61
2022-08-27T14:16:28.326Z,32.95
2022-08-27T14:19:36.694Z,36.49
2022-08-27T14:22:39.427Z,39.09
2022-08-27T14:25:41.598Z,39.25
2022-08-27T14:28:44.423Z,42.50
2022-08-27T14:31:46.735Z,44.34
2022-08-27T14:34:48.875Z,44.37
2022-08-27T14:37:51.029Z,43.11
2022-08-27T14:40:54.346Z,44.19
2022-08-27T14:43:56.842Z,42.86
2022-08-27T14:47:00.165Z,42.53
2022-08-27T14:50:02.959Z,41.08
2022-08-27T14:53:05.139Z,42.04
2022-08-27T14:56:07.306Z,33.51
2022-08-27T14:59:09.459Z,31.94
2022-08-27T15:02:13.756Z,36.66
2022-08-27T15:05:18.215Z,38.48
2022-08-27T15:08:25.707Z,38.69
2022-08-27T15:11:32.272Z,39.30
2022-08-27T15:14:36.050Z,38.48
2022-08-27T15:17:38.283Z,33.15
2022-08-27T15:20:41.434Z,33.40
2022-08-27T15:23:44.590Z,35.22
2022-08-27T15:26:46.755Z,38.16
2022-08-27T15:29:48.822Z,37.44
2022-08-27T15:32:50.962Z,35.43
2022-08-27T15:35:53.069Z,35.50
2022-08-27T15:38:56.226Z,34.73
2022-08-27T15:42:06.967Z,35.63
2022-08-27T15:45:11.438Z,34.63
2022-08-27T15:48:13.714Z,33.78
2022-08-27T15:51:15.954Z,34.54
2022-08-27T15:54:18.176Z,32.56
2022-08-27T15:57:20.538Z,33.76
2022-08-27T16:00:23.552Z,35.25
2022-08-27T16:03:29.893Z,32.93
2022-08-27T16:06:38.734Z,35.83
2022-08-27T16:09:42.128Z,36.85
2022-08-27T16:12:44.508Z,35.61
2022-08-27T16:15:46.912Z,36.49
2022-08-27T16:18:49.031Z,37.56
2022-08-27T16:21:52.378Z,39.87
2022-08-27T16:24:54.783Z,37.73
2022-08-27T16:28:00.955Z,40.78
2022-08-27T16:31:05.444Z,40.84
2022-08-27T16:34:19.131Z,40.18
2022-08-27T16:37:21.340Z,40.07
2022-08-27T16:40:23.511Z,42.22
2022-08-27T16:43:26.915Z,42.39
2022-08-27T16:46:29.168Z,42.75
2022-08-27T16:49:49.844Z,42.99
2022-08-27T16:52:51.996Z,44.68
2022-08-27T16:55:54.139Z,44.58
2022-08-27T16:58:56.391Z,46.01
2022-08-27T17:01:58.517Z,45.87
2022-08-27T17:05:12.381Z,46.26
2022-08-27T17:08:25.605Z,45.11
2022-08-27T17:11:30.728Z,45.32
2022-08-27T17:14:37.764Z,46.07
2022-08-27T17:17:40.642Z,46.07
2022-08-27T17:20:43.899Z,47.69
2022-08-27T17:23:48.742Z,48.92
2022-08-27T17:26:50.815Z,49.28
2022-08-27T17:29:52.974Z,49.13
2022-08-27T17:32:55.053Z,49.54
2022-08-27T17:35:58.471Z,48.26
2022-08-27T17:39:02.574Z,43.79
2022-08-27T17:42:04.988Z,45.10
2022-08-27T17:45:07.884Z,48.20
2022-08-27T17:48:12.354Z,48.41
2022-08-27T17:51:19.665Z,49.09
2022-08-27T17:54:36.133Z,50.72
2022-08-27T17:57:40.669Z,50.33
2022-08-27T18:00:44.949Z,50.94
2022-08-27T18:03:47.705Z,52.26
2022-08-27T18:06:50.211Z,50.79
2022-08-27T18:09:52.410Z,52.16
2022-08-27T18:12:55.502Z,52.38
2022-08-27T18:15:57.647Z,52.69
2022-08-27T18:18:59.790Z,51.97
2022-08-27T18:22:01.875Z,51.71
2022-08-27T18:25:05.336Z,52.38
2022-08-27T18:28:09.718Z,52.93
2022-08-27T18:31:15.058Z,52.96
2022-08-27T18:34:20.768Z,53.21
2022-08-27T18:37:23.685Z,52.84
2022-08-27T18:40:28.948Z,53.05
2022-08-27T18:43:35.122Z,53.66
2022-08-27T18:46:37.948Z,54.26
2022-08-27T18:49:40.143Z,54.46
2022-08-27T18:52:43.118Z,54.72
2022-08-27T18:55:45.366Z,54.55
2022-08-27T18:58:49.205Z,54.48
2022-08-27T19:01:52.869Z,54.34
2022-08-27T19:04:55.194Z,54.08
2022-08-27T19:07:58.385Z,53.80
2022-08-27T19:11:01.145Z,53.98
2022-08-27T19:14:03.248Z,53.91
2022-08-27T19:17:05.398Z,53.82
2022-08-27T19:20:08.042Z,53.66
2022-08-27T19:23:10.150Z,53.87
2022-08-27T19:26:18.093Z,53.47
2022-08-27T19:29:20.239Z,53.26
2022-08-27T19:32:22.498Z,53.56
2022-08-27T19:35:24.672Z,52.29
2022-08-27T19:38:27.896Z,51.65
2022-08-27T19:41:29.970Z,53.11
2022-08-27T19:44:32.038Z,53.15
2022-08-27T19:47:34.280Z,53.14
2022-08-27T19:50:36.414Z,54.66
2022-08-27T19:53:38.523Z,53.81
2022-08-27T19:56:40.660Z,52.79
2022-08-27T19:59:43.239Z,52.99
2022-08-27T20:02:45.410Z,51.82
2022-08-27T20:05:49.203Z,51.99
2022-08-27T20:08:51.287Z,52.89
2022-08-27T20:11:54.380Z,52.94
2022-08-27T20:14:56.447Z,52.14
2022-08-27T20:17:59.702Z,53.47
2022-08-27T20:21:05.753Z,53.29
2022-08-27T20:24:09.130Z,53.68
2022-08-27T20:27:11.219Z,53.53
2022-08-27T20:30:13.740Z,54.77
2022-08-27T20:33:16.725Z,53.34
2022-08-27T20:36:19.014Z,53.60
2022-08-27T20:39:21.092Z,52.92
2022-08-27T20:42:23.283Z,51.96
2022-08-27T20:45:25.587Z,53.56
2022-08-27T20:48:32.283Z,52.88
2022-08-27T20:51:51.169Z,52.52
2022-08-27T20:54:56.947Z,52.22
2022-08-27T20:58:17.414Z,52.31
2022-08-27T21:01:19.667Z,52.66
2022-08-27T21:04:21.775Z,51.60
2022-08-27T21:07:24.112Z,53.07
2022-08-27T21:10:26.212Z,53.03
2022-08-27T21:13:29.053Z,53.65
2022-08-27T21:16:31.664Z,54.10
2022-08-27T21:19:34.259Z,53.47
2022-08-27T21:22:36.531Z,53.29
2022-08-27T21:25:38.647Z,53.10
2022-08-27T21:28:42.358Z,53.18
2022-08-27T21:31:44.627Z,53.93
2022-08-27T21:34:46.767Z,53.35
2022-08-27T21:37:49.877Z,53.18
2022-08-27T21:40:51.962Z,53.21
2022-08-27T21:43:54.410Z,54.24
2022-08-27T21:46:57.191Z,55.16
2022-08-27T21:49:59.335Z,55.26
2022-08-27T21:53:01.415Z,55.29
2022-08-27T21:56:03.821Z,55.98
2022-08-27T21:59:06.352Z,56.13
2022-08-27T22:02:28.831Z,56.27
2022-08-27T22:05:30.622Z,56.60
2022-08-27T22:08:32.891Z,57.03
2022-08-27T22:11:35.224Z,56.97
2022-08-27T22:14:37.534Z,57.62
2022-08-27T22:17:39.631Z,56.32
2022-08-27T22:20:42.010Z,56.57
2022-08-27T22:23:45.055Z,56.26
2022-08-27T22:26:47.311Z,57.00
2022-08-27T22:29:49.395Z,55.04
2022-08-27T22:32:51.522Z,55.04
2022-08-27T22:35:53.608Z,55.68
2022-08-27T22:38:58.395Z,55.29
2022-08-27T22:42:05.967Z,56.05
2022-08-27T22:45:08.833Z,55.55
2022-08-27T22:48:12.508Z,56.88
2022-08-27T22:51:14.735Z,57.76
2022-08-27T22:54:17.762Z,55.90
2022-08-27T22:57:19.897Z,56.12
2022-08-27T23:00:34.386Z,57.31
2022-08-27T23:03:36.563Z,56.34
2022-08-27T23:06:38.742Z,56.90
2022-08-27T23:09:40.807Z,56.58
2022-08-27T23:12:45.090Z,58.26
2022-08-27T23:15:48.283Z,60.15
2022-08-27T23:18:50.448Z,61.39
2022-08-27T23:21:52.820Z,62.17
2022-08-27T23:25:13.833Z,62.09
2022-08-27T23:28:16.148Z,62.43
2022-08-27T23:31:19.037Z,62.68
2022-08-27T23:34:21.539Z,62.14
2022-08-27T23:37:24.054Z,62.15
2022-08-27T23:40:26.353Z,62.32
2022-08-27T23:43:28.551Z,62.91
2022-08-27T23:46:31.607Z,61.70
2022-08-27T23:49:34.089Z,62.59
2022-08-27T23:52:36.616Z,60.27
2022-08-27T23:55:40.410Z,60.02
2022-08-27T23:58:42.499Z,60.69
